createdAt,value
2023-03-19T00:02:25.120Z,101112.00
2023-03-19T00:04:53.083Z,101108.09
2023-03-19T00:07:20.969Z,101117.28
2023-03-19T00:09:50.307Z,101113.78
2023-03-19T00:12:18.207Z,101112.91
2023-03-19T00:14:46.053Z,101112.59
2023-03-19T00:17:14.069Z,101115.94
2023-03-19T00:19:42.094Z,101115.19
2023-03-19T00:22:09.953Z,101116.69
2023-03-19T00:24:37.786Z,101111.41
2023-03-19T00:27:07.305Z,101116.75
2023-03-19T00:29:35.395Z,101123.28
2023-03-19T00:32:03.624Z,101127.16
2023-03-19T00:34:31.675Z,101115.78
2023-03-19T00:36:59.568Z,101123.78
2023-03-19T00:39:27.400Z,101125.03
2023-03-19T00:41:55.462Z,101124.28
2023-03-19T00:44:24.714Z,101123.72
2023-03-19T00:46:52.831Z,101126.59
2023-03-19T00:49:20.960Z,101121.13
2023-03-19T00:51:48.782Z,101126.91
2023-03-19T00:54:16.902Z,101129.00
2023-03-19T00:56:44.852Z,101133.03
2023-03-19T00:59:12.649Z,101137.88
2023-03-19T01:01:42.096Z,101137.88
2023-03-19T01:04:11.421Z,101136.16
2023-03-19T01:06:39.629Z,101153.94
2023-03-19T01:09:07.474Z,101142.97
2023-03-19T01:11:35.425Z,101136.84
2023-03-19T01:14:03.440Z,101140.28
2023-03-19T01:16:31.518Z,101141.16
2023-03-19T01:19:00.941Z,101133.69
2023-03-19T01:21:30.978Z,101139.56
2023-03-19T01:23:58.836Z,101135.75
2023-03-19T01:26:27.417Z,101137.00
2023-03-19T01:28:55.851Z,101138.44
2023-03-19T01:31:23.690Z,101137.09
2023-03-19T01:33:51.827Z,101136.53
2023-03-19T01:36:21.052Z,101136.06
2023-03-19T01:38:48.932Z,101134.44
2023-03-19T01:41:17.307Z,101137.41
2023-03-19T01:43:45.169Z,101131.41
2023-03-19T01:46:28.739Z,101131.59
2023-03-19T01:48:59.936Z,101124.16
2023-03-19T01:51:33.620Z,101126.47
2023-03-19T01:54:05.080Z,101117.91
2023-03-19T01:56:35.822Z,101119.09
2023-03-19T01:59:08.488Z,101118.50
2023-03-19T02:01:40.900Z,101115.63
2023-03-19T02:04:09.177Z,101121.34
2023-03-19T02:06:39.194Z,101114.66
2023-03-19T02:09:07.462Z,101113.44
2023-03-19T02:11:35.557Z,101112.28
2023-03-19T02:14:03.399Z,101114.22
2023-03-19T02:16:31.951Z,101116.13
2023-03-19T02:19:00.864Z,101117.09
2023-03-19T02:21:28.776Z,101122.00
2023-03-19T02:24:04.381Z,101118.50
2023-03-19T02:26:33.834Z,101122.16
2023-03-19T02:29:01.686Z,101114.03
2023-03-19T02:31:30.260Z,101117.84
2023-03-19T02:34:00.619Z,101116.22
2023-03-19T02:36:32.745Z,101115.34
2023-03-19T02:39:03.709Z,101123.50
2023-03-19T02:41:35.699Z,101116.81
2023-03-19T02:44:05.350Z,101121.69
2023-03-19T02:46:33.281Z,101119.22
2023-03-19T02:49:01.379Z,101116.63
2023-03-19T02:51:29.267Z,101125.50
2023-03-19T02:53:57.237Z,101126.63
2023-03-19T02:56:25.160Z,101132.19
2023-03-19T02:58:54.492Z,101124.63
2023-03-19T03:01:22.403Z,101125.41
2023-03-19T03:03:50.323Z,101125.97
2023-03-19T03:06:18.174Z,101122.72
2023-03-19T03:08:46.221Z,101127.59
2023-03-19T03:11:14.194Z,101122.81
2023-03-19T03:13:42.141Z,101130.06
2023-03-19T03:16:11.435Z,101128.28
2023-03-19T03:18:39.377Z,101128.28
2023-03-19T03:21:07.339Z,101129.88
2023-03-19T03:23:35.172Z,101133.78
2023-03-19T03:26:03.521Z,101136.00
2023-03-19T03:28:31.413Z,101127.75
2023-03-19T03:31:03.852Z,101130.88
2023-03-19T03:33:33.175Z,101128.28
2023-03-19T03:36:01.266Z,101135.81
2023-03-19T03:38:29.404Z,101150.97
2023-03-19T03:40:57.249Z,101146.59
2023-03-19T03:43:25.971Z,101138.47
2023-03-19T03:45:54.671Z,101141.25
2023-03-19T03:48:23.044Z,101140.03
2023-03-19T03:50:52.785Z,101134.00
2023-03-19T03:53:21.021Z,101135.72
2023-03-19T03:55:48.872Z,101136.22
2023-03-19T03:58:16.961Z,101130.03
2023-03-19T04:00:44.999Z,101137.53
2023-03-19T04:03:13.001Z,101123.50
2023-03-19T04:05:41.073Z,101132.63
2023-03-19T04:08:10.315Z,101126.16
2023-03-19T04:10:42.360Z,101126.94
2023-03-19T04:13:10.788Z,101124.69
2023-03-19T04:15:38.622Z,101132.94
2023-03-19T04:18:06.530Z,101134.84
2023-03-19T04:20:34.842Z,101132.13
2023-03-19T04:23:03.415Z,101144.84
2023-03-19T04:25:32.615Z,101140.28
2023-03-19T04:28:00.638Z,101150.09
2023-03-19T04:30:29.084Z,101143.63
2023-03-19T04:32:57.044Z,101135.91
2023-03-19T04:35:25.174Z,101139.34
2023-03-19T04:37:53.055Z,101142.84
2023-03-19T04:40:20.969Z,101139.06
2023-03-19T04:42:50.358Z,101141.56
2023-03-19T04:45:20.961Z,101138.91
2023-03-19T04:47:48.830Z,101144.31
2023-03-19T04:50:16.909Z,101136.91
2023-03-19T04:52:44.796Z,101141.56
2023-03-19T04:55:13.223Z,101139.84
2023-03-19T04:57:42.381Z,101143.28
2023-03-19T05:00:14.561Z,101145.84
2023-03-19T05:02:42.907Z,101143.78
2023-03-19T05:05:12.518Z,101138.81
2023-03-19T05:07:41.432Z,101146.28
2023-03-19T05:10:10.627Z,101132.34
2023-03-19T05:12:38.691Z,101138.09
2023-03-19T05:15:07.481Z,101145.56
2023-03-19T05:17:37.454Z,101149.16
2023-03-19T05:20:06.247Z,101142.00
2023-03-19T05:22:34.357Z,101147.25
2023-03-19T05:25:02.719Z,101154.41
2023-03-19T05:27:30.774Z,101152.59
2023-03-19T05:29:58.968Z,101146.00
2023-03-19T05:32:27.125Z,101140.00
2023-03-19T05:34:56.359Z,101140.59
2023-03-19T05:37:24.196Z,101143.75
2023-03-19T05:39:52.076Z,101136.75
2023-03-19T05:42:19.898Z,101137.72
2023-03-19T05:44:48.314Z,101139.06
2023-03-19T05:47:16.420Z,101133.22
2023-03-19T05:49:44.288Z,101142.00
2023-03-19T05:52:13.786Z,101137.13
2023-03-19T05:54:42.280Z,101150.69
2023-03-19T05:57:10.203Z,101141.53
2023-03-19T05:59:38.013Z,101143.44
2023-03-19T06:02:06.278Z,101137.06
2023-03-19T06:04:34.186Z,101140.66
2023-03-19T06:07:02.002Z,101141.44
2023-03-19T06:09:31.322Z,101143.06
2023-03-19T06:11:59.194Z,101145.34
2023-03-19T06:14:27.466Z,101155.41
2023-03-19T06:16:55.452Z,101161.47
2023-03-19T06:19:23.977Z,101162.25
2023-03-19T06:21:52.413Z,101168.38
2023-03-19T06:24:20.407Z,101161.78
2023-03-19T06:26:49.839Z,101159.78
2023-03-19T06:29:17.738Z,101170.31
2023-03-19T06:31:45.673Z,101168.00
2023-03-19T06:34:13.676Z,101165.50
2023-03-19T06:36:42.741Z,101161.13
2023-03-19T06:39:10.732Z,101171.34
2023-03-19T06:41:38.841Z,101169.72
2023-03-19T06:44:08.310Z,101177.56
2023-03-19T06:46:36.200Z,101179.66
2023-03-19T06:49:04.349Z,101174.28
2023-03-19T06:51:32.229Z,101178.03
2023-03-19T06:54:00.183Z,101183.84
2023-03-19T06:56:29.505Z,101186.88
2023-03-19T06:58:57.698Z,101188.31
2023-03-19T07:01:27.187Z,101187.25
2023-03-19T07:03:55.415Z,101191.47
2023-03-19T07:06:23.300Z,101189.13
2023-03-19T07:08:51.277Z,101197.31
2023-03-19T07:11:19.126Z,101191.47
2023-03-19T07:13:47.120Z,101193.63
2023-03-19T07:16:15.087Z,101195.16
2023-03-19T07:18:44.326Z,101200.66
2023-03-19T07:21:12.257Z,101200.25
2023-03-19T07:23:40.330Z,101200.19
2023-03-19T07:26:08.266Z,101202.13
2023-03-19T07:28:36.168Z,101195.44
2023-03-19T07:31:04.131Z,101202.41
2023-03-19T07:33:32.103Z,101202.97
2023-03-19T07:36:01.713Z,101197.28
2023-03-19T07:38:29.709Z,101204.91
2023-03-19T07:41:02.300Z,101206.69
2023-03-19T07:43:31.029Z,101204.19
2023-03-19T07:45:59.373Z,101208.69
2023-03-19T07:48:27.296Z,101211.25
2023-03-19T07:50:55.416Z,101221.13
2023-03-19T07:53:24.675Z,101215.72
2023-03-19T07:55:52.504Z,101212.28
2023-03-19T07:58:20.507Z,101213.34
2023-03-19T08:00:48.565Z,101212.50
2023-03-19T08:03:16.604Z,101212.72
2023-03-19T08:05:45.071Z,101213.97
2023-03-19T08:08:12.900Z,101220.06
2023-03-19T08:10:42.242Z,101217.22
2023-03-19T08:13:10.294Z,101217.44
2023-03-19T08:15:38.145Z,101220.88
2023-03-19T08:18:06.347Z,101218.16
2023-03-19T08:20:34.562Z,101221.00
2023-03-19T08:23:02.768Z,101224.47
2023-03-19T08:25:32.702Z,101226.75
2023-03-19T08:28:02.280Z,101219.59
2023-03-19T08:30:30.382Z,101219.84
2023-03-19T08:32:58.643Z,101213.72
2023-03-19T08:35:27.405Z,101221.50
2023-03-19T08:37:55.755Z,101224.88
2023-03-19T08:40:24.386Z,101228.69
2023-03-19T08:42:52.597Z,101226.22
2023-03-19T08:45:22.256Z,101234.63
2023-03-19T08:47:50.603Z,101229.69
2023-03-19T08:50:19.304Z,101227.22
2023-03-19T08:52:47.180Z,101226.97
2023-03-19T08:55:15.961Z,101218.22
2023-03-19T08:57:43.995Z,101218.78
2023-03-19T09:00:13.617Z,101228.22
2023-03-19T09:02:42.839Z,101226.19
2023-03-19T09:05:11.068Z,101229.66
2023-03-19T09:07:39.010Z,101228.94
2023-03-19T09:10:08.034Z,101231.09
2023-03-19T09:12:36.197Z,101233.94
2023-03-19T09:15:04.539Z,101227.69
2023-03-19T09:17:32.354Z,101235.84
2023-03-19T09:20:01.671Z,101225.03
2023-03-19T09:22:29.712Z,101237.38
2023-03-19T09:24:57.617Z,101234.03
2023-03-19T09:27:25.524Z,101229.38
2023-03-19T09:29:53.339Z,101236.16
2023-03-19T09:32:21.692Z,101227.69
2023-03-19T09:34:49.600Z,101232.72
2023-03-19T09:37:18.862Z,101235.56
2023-03-19T17:52:30.824Z,101378.34
2023-03-19T17:54:58.823Z,101387.56
2023-03-19T17:57:29.790Z,101379.53
2023-03-19T18:00:02.731Z,101375.13
2023-03-19T18:02:33.394Z,101383.69
2023-03-19T18:05:01.335Z,101370.78
2023-03-19T18:07:30.827Z,101386.78
2023-03-19T18:09:58.771Z,101382.44
2023-03-19T18:12:26.705Z,101382.06
2023-03-19T18:14:54.895Z,101391.19
2023-03-19T18:17:22.880Z,101399.53
2023-03-19T18:19:52.304Z,101396.19
2023-03-19T18:22:21.299Z,101404.13
2023-03-19T18:24:50.514Z,101401.44
2023-03-19T18:27:18.421Z,101406.53
2023-03-19T18:29:46.304Z,101404.69
2023-03-19T18:32:17.360Z,101394.22
2023-03-19T18:34:45.414Z,101408.72
2023-03-19T18:37:17.469Z,101408.19
2023-03-19T18:39:45.643Z,101410.09
2023-03-19T18:42:15.504Z,101405.50
2023-03-19T18:44:44.276Z,101408.00
2023-03-19T18:47:15.893Z,101406.38
2023-03-19T18:49:44.844Z,101409.91
2023-03-19T18:52:17.277Z,101414.41
2023-03-19T18:54:46.591Z,101412.69
2023-03-19T18:57:17.584Z,101425.22
2023-03-19T18:59:45.671Z,101426.38
2023-03-19T19:02:23.721Z,101422.94
2023-03-19T19:04:51.568Z,101431.28
2023-03-19T19:07:19.678Z,101433.56
2023-03-19T19:09:47.575Z,101442.75
2023-03-19T19:12:18.852Z,101441.50
2023-03-19T19:14:47.107Z,101449.44
2023-03-19T19:17:18.404Z,101448.00
2023-03-19T19:19:46.453Z,101447.53
2023-03-19T19:22:16.577Z,101441.03
2023-03-19T19:24:44.628Z,101450.56
2023-03-19T19:27:18.659Z,101456.13
2023-03-19T19:29:47.449Z,101452.91
2023-03-19T19:32:26.065Z,101463.03
2023-03-19T19:34:54.674Z,101466.88
2023-03-19T19:37:23.575Z,101473.94
2023-03-19T19:39:52.183Z,101478.16
2023-03-19T19:42:23.236Z,101480.16
2023-03-19T19:44:53.723Z,101479.97
2023-03-19T19:47:21.689Z,101487.50
2023-03-19T19:49:49.744Z,101488.31
2023-03-19T19:52:19.899Z,101487.00
2023-03-19T19:54:48.322Z,101489.19
2023-03-19T19:57:19.878Z,101505.06
2023-03-19T19:59:50.025Z,101507.06
2023-03-19T20:02:22.662Z,101513.16
2023-03-19T20:04:50.949Z,101518.41
2023-03-19T20:07:19.065Z,101510.63
2023-03-19T20:09:47.711Z,101517.78
2023-03-19T20:12:23.470Z,101518.72
2023-03-19T20:14:53.590Z,101518.72
2023-03-19T20:17:22.045Z,101521.44
2023-03-19T20:19:50.446Z,101523.16
2023-03-19T20:22:18.804Z,101522.13
2023-03-19T20:24:50.297Z,101521.63
2023-03-19T20:27:21.988Z,101529.09
2023-03-19T20:29:50.737Z,101536.53
2023-03-19T20:32:28.838Z,101540.16
2023-03-19T20:34:56.794Z,101540.59
2023-03-19T20:37:24.740Z,101538.94
2023-03-19T20:39:52.616Z,101545.66
2023-03-19T20:42:20.880Z,101551.41
2023-03-19T20:44:48.896Z,101558.59
2023-03-19T20:47:18.270Z,101552.28
2023-03-19T20:49:47.776Z,101555.38
2023-03-19T20:52:16.475Z,101568.84
2023-03-19T20:54:44.853Z,101558.47
2023-03-19T20:57:14.856Z,101566.56
2023-03-19T20:59:45.810Z,101563.31
2023-03-19T21:02:17.669Z,101568.59
2023-03-19T21:04:47.693Z,101565.41
2023-03-19T21:07:28.834Z,101563.63
2023-03-19T21:09:57.960Z,101571.91
2023-03-19T21:12:29.734Z,101570.63
2023-03-19T21:14:58.170Z,101584.06
2023-03-19T21:17:27.362Z,101583.13
2023-03-19T21:19:57.159Z,101586.75
2023-03-19T21:22:28.598Z,101585.59
2023-03-19T21:25:04.290Z,101578.34
2023-03-19T21:27:35.515Z,101591.50
2023-03-19T21:30:05.588Z,101590.44
2023-03-19T21:32:34.508Z,101594.16
2023-03-19T21:35:03.829Z,101591.94
2023-03-19T21:37:31.877Z,101589.03
2023-03-19T21:39:59.771Z,101595.88
2023-03-19T21:42:28.372Z,101586.59
2023-03-19T21:45:00.447Z,101588.88
2023-03-19T21:47:28.442Z,101592.81
2023-03-19T21:49:56.493Z,101588.44
2023-03-19T21:52:25.938Z,101585.59
2023-03-19T21:54:53.835Z,101590.53
2023-03-19T21:57:21.736Z,101587.47
2023-03-19T21:59:49.595Z,101594.00
2023-03-19T22:02:40.339Z,101595.56
2023-03-19T22:05:20.185Z,101588.88
2023-03-19T22:07:49.511Z,101584.50
2023-03-19T22:10:17.892Z,101582.75
2023-03-19T22:12:46.664Z,101578.13
2023-03-19T22:15:25.106Z,101578.56
2023-03-19T22:17:53.004Z,101579.22
2023-03-19T22:20:23.719Z,101577.25
2023-03-19T22:22:53.788Z,101580.44
2023-03-19T22:25:23.043Z,101580.75
2023-03-19T22:27:52.030Z,101570.53
2023-03-19T22:30:24.540Z,101579.41
2023-03-19T22:32:55.231Z,101580.19
2023-03-19T22:35:23.153Z,101576.25
2023-03-19T22:37:52.407Z,101582.59
2023-03-19T22:40:20.612Z,101582.19
2023-03-19T22:42:50.038Z,101582.72
2023-03-19T22:45:27.607Z,101574.56
2023-03-19T22:47:57.005Z,101578.78
2023-03-19T22:50:27.850Z,101586.38
2023-03-19T22:52:57.915Z,101581.69
2023-03-19T22:55:26.068Z,101585.88
2023-03-19T22:57:54.023Z,101580.31
2023-03-19T23:00:23.869Z,101578.06
2023-03-19T23:02:57.489Z,101578.13
2023-03-19T23:05:33.393Z,101575.84
2023-03-19T23:08:06.020Z,101581.59
2023-03-19T23:10:35.930Z,101577.59
2023-03-19T23:13:03.905Z,101573.81
2023-03-19T23:15:33.030Z,101573.84
2023-03-19T23:18:02.281Z,101579.38
2023-03-19T23:20:33.878Z,101566.91
2023-03-19T23:23:03.263Z,101571.38
2023-03-19T23:25:31.446Z,101569.13
2023-03-19T23:28:02.760Z,101571.19
2023-03-19T23:30:33.575Z,101566.25
2023-03-19T23:33:03.657Z,101564.47
2023-03-19T23:35:33.051Z,101557.13
2023-03-19T23:38:01.919Z,101571.38
2023-03-19T23:40:34.385Z,101582.25
2023-03-19T23:43:03.646Z,101573.25
2023-03-19T23:45:37.890Z,101578.09
2023-03-19T23:48:13.736Z,101578.78
2023-03-19T23:50:42.114Z,101576.66
2023-03-19T23:53:19.752Z,101574.22
2023-03-19T23:55:51.041Z,101578.38
2023-03-19T23:58:19.414Z,101575.34
